sensor_id;sensor_type;location;lat;lon;timestamp;temperature;humidity
34776;DHT22;20989;52.566;13.346;2023-04-08T00:00:51;18.30;45.50
34776;DHT22;20989;52.566;13.346;2023-04-08T00:03:52;18.30;45.70
34776;DHT22;20989;52.566;13.346;2023-04-08T00:06:53;18.30;45.50
34776;DHT22;20989;52.566;13.346;2023-04-08T00:09:53;18.30;45.50
34776;DHT22;20989;52.566;13.346;2023-04-08T00:12:55;18.30;45.50
34776;DHT22;20989;52.566;13.346;2023-04-08T00:15:56;18.30;45.70
34776;DHT22;20989;52.566;13.346;2023-04-08T00:18:57;18.30;45.70
34776;DHT22;20989;52.566;13.346;2023-04-08T00:21:58;18.30;45.50
34776;DHT22;20989;52.566;13.346;2023-04-08T00:24:58;18.30;45.70
34776;DHT22;20989;52.566;13.346;2023-04-08T00:27:59;18.30;45.70
34776;DHT22;20989;52.566;13.346;2023-04-08T00:31:00;18.30;45.80
34776;DHT22;20989;52.566;13.346;2023-04-08T00:34:01;18.30;45.60
34776;DHT22;20989;52.566;13.346;2023-04-08T00:37:02;18.30;45.60
34776;DHT22;20989;52.566;13.346;2023-04-08T00:40:03;18.30;45.70
34776;DHT22;20989;52.566;13.346;2023-04-08T00:43:04;18.30;45.80
34776;DHT22;20989;52.566;13.346;2023-04-08T00:46:04;18.30;45.70
34776;DHT22;20989;52.566;13.346;2023-04-08T00:49:06;18.30;45.60
34776;DHT22;20989;52.566;13.346;2023-04-08T00:52:06;18.30;45.70
34776;DHT22;20989;52.566;13.346;2023-04-08T00:55:07;18.30;45.50
34776;DHT22;20989;52.566;13.346;2023-04-08T00:58:08;18.30;45.50
34776;DHT22;20989;52.566;13.346;2023-04-08T01:01:21;18.30;45.60
34776;DHT22;20989;52.566;13.346;2023-04-08T01:04:49;18.30;45.50
34776;DHT22;20989;52.566;13.346;2023-04-08T01:07:52;18.30;45.50
34776;DHT22;20989;52.566;13.346;2023-04-08T01:10:57;18.30;45.70
34776;DHT22;20989;52.566;13.346;2023-04-08T01:13:59;18.30;45.50
34776;DHT22;20989;52.566;13.346;2023-04-08T01:17:01;18.30;45.50
34776;DHT22;20989;52.566;13.346;2023-04-08T01:20:03;18.30;45.70
34776;DHT22;20989;52.566;13.346;2023-04-08T01:23:26;18.20;45.60
34776;DHT22;20989;52.566;13.346;2023-04-08T01:26:29;18.30;45.90
34776;DHT22;20989;52.566;13.346;2023-04-08T01:29:30;18.20;45.60
34776;DHT22;20989;52.566;13.346;2023-04-08T01:32:33;18.30;45.70
34776;DHT22;20989;52.566;13.346;2023-04-08T01:35:34;18.30;45.60
34776;DHT22;20989;52.566;13.346;2023-04-08T01:38:37;18.30;46.10
34776;DHT22;20989;52.566;13.346;2023-04-08T01:41:38;18.30;45.70
34776;DHT22;20989;52.566;13.346;2023-04-08T01:44:40;18.20;45.50
34776;DHT22;20989;52.566;13.346;2023-04-08T01:47:44;18.20;45.60
34776;DHT22;20989;52.566;13.346;2023-04-08T01:50:49;18.20;45.80
34776;DHT22;20989;52.566;13.346;2023-04-08T01:53:50;18.20;45.60
34776;DHT22;20989;52.566;13.346;2023-04-08T01:56:52;18.20;45.50
34776;DHT22;20989;52.566;13.346;2023-04-08T02:03:50;18.20;45.60
34776;DHT22;20989;52.566;13.346;2023-04-08T02:06:58;18.30;45.60
34776;DHT22;20989;52.566;13.346;2023-04-08T02:10:02;18.30;45.80
34776;DHT22;20989;52.566;13.346;2023-04-08T02:13:06;18.20;45.60
34776;DHT22;20989;52.566;13.346;2023-04-08T02:16:33;18.20;45.70
34776;DHT22;20989;52.566;13.346;2023-04-08T02:23:01;18.20;45.60
34776;DHT22;20989;52.566;13.346;2023-04-08T02:26:14;18.30;45.70
34776;DHT22;20989;52.566;13.346;2023-04-08T02:29:18;18.20;45.70
34776;DHT22;20989;52.566;13.346;2023-04-08T02:32:23;18.20;45.80
34776;DHT22;20989;52.566;13.346;2023-04-08T02:35:27;18.20;45.60
34776;DHT22;20989;52.566;13.346;2023-04-08T02:38:29;18.20;45.80
34776;DHT22;20989;52.566;13.346;2023-04-08T02:41:33;18.30;46.20
34776;DHT22;20989;52.566;13.346;2023-04-08T02:44:36;18.20;45.70
34776;DHT22;20989;52.566;13.346;2023-04-08T02:47:40;18.20;45.80
34776;DHT22;20989;52.566;13.346;2023-04-08T02:50:44;18.20;45.80
34776;DHT22;20989;52.566;13.346;2023-04-08T02:53:46;18.20;45.70
34776;DHT22;20989;52.566;13.346;2023-04-08T02:56:50;18.20;45.80
34776;DHT22;20989;52.566;13.346;2023-04-08T02:59:54;18.20;45.70
34776;DHT22;20989;52.566;13.346;2023-04-08T03:02:58;18.20;45.80
34776;DHT22;20989;52.566;13.346;2023-04-08T03:06:02;18.20;45.80
34776;DHT22;20989;52.566;13.346;2023-04-08T03:09:04;18.20;45.70
34776;DHT22;20989;52.566;13.346;2023-04-08T03:12:07;18.20;45.70
34776;DHT22;20989;52.566;13.346;2023-04-08T03:15:10;18.20;45.70
34776;DHT22;20989;52.566;13.346;2023-04-08T03:18:14;18.20;45.70
34776;DHT22;20989;52.566;13.346;2023-04-08T03:21:17;18.20;45.80
34776;DHT22;20989;52.566;13.346;2023-04-08T03:24:21;18.20;45.80
34776;DHT22;20989;52.566;13.346;2023-04-08T03:27:23;18.20;45.80
34776;DHT22;20989;52.566;13.346;2023-04-08T03:30:25;18.20;45.70
34776;DHT22;20989;52.566;13.346;2023-04-08T03:33:28;18.20;45.80
34776;DHT22;20989;52.566;13.346;2023-04-08T03:36:31;18.20;45.90
34776;DHT22;20989;52.566;13.346;2023-04-08T03:39:33;18.20;45.80
34776;DHT22;20989;52.566;13.346;2023-04-08T03:42:35;18.20;45.80
34776;DHT22;20989;52.566;13.346;2023-04-08T03:45:39;18.20;45.70
34776;DHT22;20989;52.566;13.346;2023-04-08T03:48:42;18.20;45.80
34776;DHT22;20989;52.566;13.346;2023-04-08T03:51:45;18.20;45.80
34776;DHT22;20989;52.566;13.346;2023-04-08T03:54:47;18.20;45.80
34776;DHT22;20989;52.566;13.346;2023-04-08T03:57:49;18.20;46.10
34776;DHT22;20989;52.566;13.346;2023-04-08T04:00:54;18.20;45.90
34776;DHT22;20989;52.566;13.346;2023-04-08T04:03:59;18.20;45.80
34776;DHT22;20989;52.566;13.346;2023-04-08T04:07:00;18.20;45.90
34776;DHT22;20989;52.566;13.346;2023-04-08T04:10:03;18.30;45.80
34776;DHT22;20989;52.566;13.346;2023-04-08T04:13:05;18.20;45.80
34776;DHT22;20989;52.566;13.346;2023-04-08T04:16:07;18.20;45.90
34776;DHT22;20989;52.566;13.346;2023-04-08T04:19:11;18.20;45.90
34776;DHT22;20989;52.566;13.346;2023-04-08T04:22:13;18.20;46.00
34776;DHT22;20989;52.566;13.346;2023-04-08T04:25:14;18.20;46.00
34776;DHT22;20989;52.566;13.346;2023-04-08T04:28:17;18.20;45.80
34776;DHT22;20989;52.566;13.346;2023-04-08T04:31:21;18.20;45.80
34776;DHT22;20989;52.566;13.346;2023-04-08T04:34:27;18.20;45.80
34776;DHT22;20989;52.566;13.346;2023-04-08T04:37:31;18.20;45.90
34776;DHT22;20989;52.566;13.346;2023-04-08T04:40:37;18.20;45.90
34776;DHT22;20989;52.566;13.346;2023-04-08T04:43:39;18.20;45.90
34776;DHT22;20989;52.566;13.346;2023-04-08T04:46:42;18.20;45.90
34776;DHT22;20989;52.566;13.346;2023-04-08T04:49:44;18.20;45.90
34776;DHT22;20989;52.566;13.346;2023-04-08T04:52:46;18.20;45.80
34776;DHT22;20989;52.566;13.346;2023-04-08T04:55:50;18.20;45.90
34776;DHT22;20989;52.566;13.346;2023-04-08T04:58:52;18.20;45.90
34776;DHT22;20989;52.566;13.346;2023-04-08T05:01:59;18.20;46.10
34776;DHT22;20989;52.566;13.346;2023-04-08T05:05:06;18.20;45.90
34776;DHT22;20989;52.566;13.346;2023-04-08T05:08:13;18.20;45.90
34776;DHT22;20989;52.566;13.346;2023-04-08T05:11:16;18.20;46.00
34776;DHT22;20989;52.566;13.346;2023-04-08T05:14:23;18.20;46.10
34776;DHT22;20989;52.566;13.346;2023-04-08T05:17:31;18.20;45.90
34776;DHT22;20989;52.566;13.346;2023-04-08T05:20:39;18.20;46.00
34776;DHT22;20989;52.566;13.346;2023-04-08T05:23:56;18.20;46.00
34776;DHT22;20989;52.566;13.346;2023-04-08T05:27:10;18.20;46.00
34776;DHT22;20989;52.566;13.346;2023-04-08T05:30:21;18.20;46.10
34776;DHT22;20989;52.566;13.346;2023-04-08T05:34:03;18.20;46.00
34776;DHT22;20989;52.566;13.346;2023-04-08T05:37:26;18.20;46.10
34776;DHT22;20989;52.566;13.346;2023-04-08T05:40:39;18.20;46.10
34776;DHT22;20989;52.566;13.346;2023-04-08T05:43:49;18.20;46.50
34776;DHT22;20989;52.566;13.346;2023-04-08T05:47:12;18.20;46.00
34776;DHT22;20989;52.566;13.346;2023-04-08T05:50:23;18.20;45.90
34776;DHT22;20989;52.566;13.346;2023-04-08T05:53:38;18.20;46.00
34776;DHT22;20989;52.566;13.346;2023-04-08T05:56:47;18.20;45.90
34776;DHT22;20989;52.566;13.346;2023-04-08T06:00:01;18.20;46.00
34776;DHT22;20989;52.566;13.346;2023-04-08T06:03:12;18.10;46.00
34776;DHT22;20989;52.566;13.346;2023-04-08T06:06:21;18.10;45.90
34776;DHT22;20989;52.566;13.346;2023-04-08T06:09:29;18.20;46.00
34776;DHT22;20989;52.566;13.346;2023-04-08T06:12:41;18.20;46.00
34776;DHT22;20989;52.566;13.346;2023-04-08T06:15:54;18.20;46.00
34776;DHT22;20989;52.566;13.346;2023-04-08T06:19:01;18.20;46.00
34776;DHT22;20989;52.566;13.346;2023-04-08T06:22:09;18.10;46.00
34776;DHT22;20989;52.566;13.346;2023-04-08T06:25:18;18.10;46.00
34776;DHT22;20989;52.566;13.346;2023-04-08T06:28:28;18.20;46.10
34776;DHT22;20989;52.566;13.346;2023-04-08T06:31:31;18.10;46.00
34776;DHT22;20989;52.566;13.346;2023-04-08T06:34:36;18.10;46.00
34776;DHT22;20989;52.566;13.346;2023-04-08T06:37:43;18.10;46.00
34776;DHT22;20989;52.566;13.346;2023-04-08T06:40:46;18.10;46.00
34776;DHT22;20989;52.566;13.346;2023-04-08T06:43:48;18.20;46.00
34776;DHT22;20989;52.566;13.346;2023-04-08T06:46:50;18.10;46.20
34776;DHT22;20989;52.566;13.346;2023-04-08T06:49:54;18.20;46.20
34776;DHT22;20989;52.566;13.346;2023-04-08T06:52:57;18.10;46.10
34776;DHT22;20989;52.566;13.346;2023-04-08T06:56:01;18.20;46.10
34776;DHT22;20989;52.566;13.346;2023-04-08T06:59:05;18.10;46.00
34776;DHT22;20989;52.566;13.346;2023-04-08T07:02:08;18.10;46.00
34776;DHT22;20989;52.566;13.346;2023-04-08T07:05:11;18.20;46.60
34776;DHT22;20989;52.566;13.346;2023-04-08T07:08:13;18.20;46.10
34776;DHT22;20989;52.566;13.346;2023-04-08T07:11:16;18.10;46.00
34776;DHT22;20989;52.566;13.346;2023-04-08T07:14:19;18.10;46.20
34776;DHT22;20989;52.566;13.346;2023-04-08T07:17:21;18.20;46.30
34776;DHT22;20989;52.566;13.346;2023-04-08T07:20:24;18.20;46.10
34776;DHT22;20989;52.566;13.346;2023-04-08T07:23:28;18.20;46.10
34776;DHT22;20989;52.566;13.346;2023-04-08T07:26:30;18.10;46.10
34776;DHT22;20989;52.566;13.346;2023-04-08T07:29:32;18.20;46.00
34776;DHT22;20989;52.566;13.346;2023-04-08T07:32:34;18.10;46.10
34776;DHT22;20989;52.566;13.346;2023-04-08T07:35:36;18.10;46.10
34776;DHT22;20989;52.566;13.346;2023-04-08T07:38:38;18.20;46.20
34776;DHT22;20989;52.566;13.346;2023-04-08T07:41:40;18.20;46.60
34776;DHT22;20989;52.566;13.346;2023-04-08T07:44:42;18.10;46.10
34776;DHT22;20989;52.566;13.346;2023-04-08T07:47:43;18.20;46.10
34776;DHT22;20989;52.566;13.346;2023-04-08T07:50:44;18.10;46.00
34776;DHT22;20989;52.566;13.346;2023-04-08T07:53:46;18.20;46.10
34776;DHT22;20989;52.566;13.346;2023-04-08T07:56:48;18.10;46.10
34776;DHT22;20989;52.566;13.346;2023-04-08T07:59:49;18.10;46.10
34776;DHT22;20989;52.566;13.346;2023-04-08T08:02:51;18.10;46.00
34776;DHT22;20989;52.566;13.346;2023-04-08T08:05:52;18.10;46.10
34776;DHT22;20989;52.566;13.346;2023-04-08T08:08:54;18.20;46.20
34776;DHT22;20989;52.566;13.346;2023-04-08T08:11:55;18.10;46.20
34776;DHT22;20989;52.566;13.346;2023-04-08T08:14:57;18.10;46.10
34776;DHT22;20989;52.566;13.346;2023-04-08T08:17:59;18.10;46.10
34776;DHT22;20989;52.566;13.346;2023-04-08T08:21:01;18.10;46.10
34776;DHT22;20989;52.566;13.346;2023-04-08T08:24:02;18.10;46.10
34776;DHT22;20989;52.566;13.346;2023-04-08T08:27:04;18.20;46.10
34776;DHT22;20989;52.566;13.346;2023-04-08T08:30:07;18.10;46.20
34776;DHT22;20989;52.566;13.346;2023-04-08T08:33:09;18.10;46.10
34776;DHT22;20989;52.566;13.346;2023-04-08T08:36:11;18.20;46.20
34776;DHT22;20989;52.566;13.346;2023-04-08T08:39:12;18.10;46.60
34776;DHT22;20989;52.566;13.346;2023-04-08T08:42:22;18.10;46.30
34776;DHT22;20989;52.566;13.346;2023-04-08T08:45:27;18.10;46.10
34776;DHT22;20989;52.566;13.346;2023-04-08T08:48:30;18.20;46.20
34776;DHT22;20989;52.566;13.346;2023-04-08T08:51:33;18.10;46.10
34776;DHT22;20989;52.566;13.346;2023-04-08T08:54:36;18.20;46.20
34776;DHT22;20989;52.566;13.346;2023-04-08T08:57:38;18.20;46.20
34776;DHT22;20989;52.566;13.346;2023-04-08T09:00:41;18.20;46.20
34776;DHT22;20989;52.566;13.346;2023-04-08T09:03:45;18.20;46.40
34776;DHT22;20989;52.566;13.346;2023-04-08T09:06:49;18.20;46.30
34776;DHT22;20989;52.566;13.346;2023-04-08T09:09:52;18.20;46.10
34776;DHT22;20989;52.566;13.346;2023-04-08T09:12:55;18.20;46.30
34776;DHT22;20989;52.566;13.346;2023-04-08T09:16:04;18.30;46.30
34776;DHT22;20989;52.566;13.346;2023-04-08T09:19:10;18.30;46.10
34776;DHT22;20989;52.566;13.346;2023-04-08T09:22:11;18.20;46.10
34776;DHT22;20989;52.566;13.346;2023-04-08T09:25:32;18.30;46.20
34776;DHT22;20989;52.566;13.346;2023-04-08T09:28:34;18.30;46.10
34776;DHT22;20989;52.566;13.346;2023-04-08T09:31:37;18.30;46.20
34776;DHT22;20989;52.566;13.346;2023-04-08T09:34:41;18.30;46.20
34776;DHT22;20989;52.566;13.346;2023-04-08T09:37:42;18.30;46.20
34776;DHT22;20989;52.566;13.346;2023-04-08T09:40:44;18.30;46.10
34776;DHT22;20989;52.566;13.346;2023-04-08T09:43:52;18.30;46.10
34776;DHT22;20989;52.566;13.346;2023-04-08T09:47:18;18.30;46.20
34776;DHT22;20989;52.566;13.346;2023-04-08T09:50:25;18.30;46.00
34776;DHT22;20989;52.566;13.346;2023-04-08T09:53:35;18.30;46.10
34776;DHT22;20989;52.566;13.346;2023-04-08T09:57:00;18.30;46.50
34776;DHT22;20989;52.566;13.346;2023-04-08T10:00:13;18.30;46.40
34776;DHT22;20989;52.566;13.346;2023-04-08T10:03:57;18.30;46.20
34776;DHT22;20989;52.566;13.346;2023-04-08T10:07:02;18.30;46.30
34776;DHT22;20989;52.566;13.346;2023-04-08T10:10:06;18.30;46.40
34776;DHT22;20989;52.566;13.346;2023-04-08T10:13:11;18.30;46.40
34776;DHT22;20989;52.566;13.346;2023-04-08T10:16:20;18.30;46.40
34776;DHT22;20989;52.566;13.346;2023-04-08T10:19:40;18.30;46.30
34776;DHT22;20989;52.566;13.346;2023-04-08T10:22:48;18.30;46.80
34776;DHT22;20989;52.566;13.346;2023-04-08T10:25:51;18.30;46.40
34776;DHT22;20989;52.566;13.346;2023-04-08T10:28:53;18.30;46.40
34776;DHT22;20989;52.566;13.346;2023-04-08T10:31:54;18.30;46.30
34776;DHT22;20989;52.566;13.346;2023-04-08T10:34:56;18.30;46.30
34776;DHT22;20989;52.566;13.346;2023-04-08T10:37:58;18.20;46.40
34776;DHT22;20989;52.566;13.346;2023-04-08T10:40:59;18.30;45.90
34776;DHT22;20989;52.566;13.346;2023-04-08T10:44:02;18.30;46.10
34776;DHT22;20989;52.566;13.346;2023-04-08T10:47:03;18.40;45.60
34776;DHT22;20989;52.566;13.346;2023-04-08T10:50:14;18.50;45.50
34776;DHT22;20989;52.566;13.346;2023-04-08T10:53:15;18.50;45.50
34776;DHT22;20989;52.566;13.346;2023-04-08T10:56:16;18.50;45.40
34776;DHT22;20989;52.566;13.346;2023-04-08T10:59:38;18.50;45.40
34776;DHT22;20989;52.566;13.346;2023-04-08T11:02:39;18.50;46.70
34776;DHT22;20989;52.566;13.346;2023-04-08T11:05:39;18.60;46.70
34776;DHT22;20989;52.566;13.346;2023-04-08T11:08:41;18.60;45.50
34776;DHT22;20989;52.566;13.346;2023-04-08T11:11:45;18.60;45.60
34776;DHT22;20989;52.566;13.346;2023-04-08T11:14:46;18.60;45.90
34776;DHT22;20989;52.566;13.346;2023-04-08T11:17:49;18.70;46.20
34776;DHT22;20989;52.566;13.346;2023-04-08T11:20:50;18.70;46.30
34776;DHT22;20989;52.566;13.346;2023-04-08T11:23:51;18.60;45.70
34776;DHT22;20989;52.566;13.346;2023-04-08T11:26:53;18.70;46.30
34776;DHT22;20989;52.566;13.346;2023-04-08T11:29:57;18.60;45.60
34776;DHT22;20989;52.566;13.346;2023-04-08T11:32:58;18.70;46.40
34776;DHT22;20989;52.566;13.346;2023-04-08T11:36:00;18.70;45.90
34776;DHT22;20989;52.566;13.346;2023-04-08T11:39:06;18.70;46.80
34776;DHT22;20989;52.566;13.346;2023-04-08T11:42:07;18.70;46.00
34776;DHT22;20989;52.566;13.346;2023-04-08T11:45:13;18.70;45.70
34776;DHT22;20989;52.566;13.346;2023-04-08T11:48:15;18.70;45.70
34776;DHT22;20989;52.566;13.346;2023-04-08T11:51:16;18.70;45.80
34776;DHT22;20989;52.566;13.346;2023-04-08T11:54:30;18.70;45.60
34776;DHT22;20989;52.566;13.346;2023-04-08T11:57:31;18.70;45.70
34776;DHT22;20989;52.566;13.346;2023-04-08T12:00:32;18.70;46.20
34776;DHT22;20989;52.566;13.346;2023-04-08T12:03:33;18.80;46.20
34776;DHT22;20989;52.566;13.346;2023-04-08T12:06:34;18.80;45.60
34776;DHT22;20989;52.566;13.346;2023-04-08T12:09:35;18.80;46.30
34776;DHT22;20989;52.566;13.346;2023-04-08T12:12:37;18.80;46.20
34776;DHT22;20989;52.566;13.346;2023-04-08T12:15:38;18.80;46.00
34776;DHT22;20989;52.566;13.346;2023-04-08T12:18:38;18.80;46.30
34776;DHT22;20989;52.566;13.346;2023-04-08T12:21:39;18.80;45.70
34776;DHT22;20989;52.566;13.346;2023-04-08T12:24:40;18.80;46.40
34776;DHT22;20989;52.566;13.346;2023-04-08T12:27:41;18.80;46.70
34776;DHT22;20989;52.566;13.346;2023-04-08T12:30:42;18.70;46.70
34776;DHT22;20989;52.566;13.346;2023-04-08T12:33:43;18.70;46.80
34776;DHT22;20989;52.566;13.346;2023-04-08T12:36:43;18.70;47.00
34776;DHT22;20989;52.566;13.346;2023-04-08T12:39:44;18.60;47.20
34776;DHT22;20989;52.566;13.346;2023-04-08T12:42:45;18.70;47.30
34776;DHT22;20989;52.566;13.346;2023-04-08T12:45:46;18.60;46.50
34776;DHT22;20989;52.566;13.346;2023-04-08T12:48:48;18.80;46.60
34776;DHT22;20989;52.566;13.346;2023-04-08T12:51:48;18.90;45.90
34776;DHT22;20989;52.566;13.346;2023-04-08T12:54:49;19.00;46.20
34776;DHT22;20989;52.566;13.346;2023-04-08T12:57:51;19.00;46.20
34776;DHT22;20989;52.566;13.346;2023-04-08T13:00:51;19.00;46.10
34776;DHT22;20989;52.566;13.346;2023-04-08T13:03:52;19.10;46.40
34776;DHT22;20989;52.566;13.346;2023-04-08T13:06:53;19.00;46.10
34776;DHT22;20989;52.566;13.346;2023-04-08T13:09:54;19.00;46.40
34776;DHT22;20989;52.566;13.346;2023-04-08T13:12:55;18.90;46.70
34776;DHT22;20989;52.566;13.346;2023-04-08T13:15:56;19.00;48.60
34776;DHT22;20989;52.566;13.346;2023-04-08T13:18:57;19.00;46.40
34776;DHT22;20989;52.566;13.346;2023-04-08T13:21:58;19.00;46.10
34776;DHT22;20989;52.566;13.346;2023-04-08T13:24:58;19.00;46.20
34776;DHT22;20989;52.566;13.346;2023-04-08T13:27:59;19.00;46.10
34776;DHT22;20989;52.566;13.346;2023-04-08T13:31:00;19.00;46.30
34776;DHT22;20989;52.566;13.346;2023-04-08T13:34:00;19.10;46.50
34776;DHT22;20989;52.566;13.346;2023-04-08T13:37:01;19.20;46.00
34776;DHT22;20989;52.566;13.346;2023-04-08T13:40:03;19.20;46.30
34776;DHT22;20989;52.566;13.346;2023-04-08T13:43:03;19.10;46.20
34776;DHT22;20989;52.566;13.346;2023-04-08T13:46:04;19.10;46.40
34776;DHT22;20989;52.566;13.346;2023-04-08T13:49:05;19.00;46.70
34776;DHT22;20989;52.566;13.346;2023-04-08T13:52:06;18.90;46.60
34776;DHT22;20989;52.566;13.346;2023-04-08T13:55:06;18.90;46.80
34776;DHT22;20989;52.566;13.346;2023-04-08T13:58:07;18.80;47.10
34776;DHT22;20989;52.566;13.346;2023-04-08T14:01:08;18.90;47.00
34776;DHT22;20989;52.566;13.346;2023-04-08T14:04:08;18.80;47.10
34776;DHT22;20989;52.566;13.346;2023-04-08T14:07:09;18.80;47.10
34776;DHT22;20989;52.566;13.346;2023-04-08T14:10:10;18.80;47.10
34776;DHT22;20989;52.566;13.346;2023-04-08T14:13:11;18.70;47.10
34776;DHT22;20989;52.566;13.346;2023-04-08T14:16:11;18.80;47.10
34776;DHT22;20989;52.566;13.346;2023-04-08T14:19:12;18.70;47.00
34776;DHT22;20989;52.566;13.346;2023-04-08T14:22:13;18.70;47.10
34776;DHT22;20989;52.566;13.346;2023-04-08T14:25:15;18.70;47.00
34776;DHT22;20989;52.566;13.346;2023-04-08T14:28:15;18.70;46.90
34776;DHT22;20989;52.566;13.346;2023-04-08T14:31:16;18.70;46.70
34776;DHT22;20989;52.566;13.346;2023-04-08T14:34:17;18.70;46.90
34776;DHT22;20989;52.566;13.346;2023-04-08T14:37:18;18.70;46.90
34776;DHT22;20989;52.566;13.346;2023-04-08T14:40:18;18.70;46.90
34776;DHT22;20989;52.566;13.346;2023-04-08T14:43:19;18.70;46.80
34776;DHT22;20989;52.566;13.346;2023-04-08T14:46:20;18.70;46.60
34776;DHT22;20989;52.566;13.346;2023-04-08T14:49:21;18.60;47.00
34776;DHT22;20989;52.566;13.346;2023-04-08T14:52:21;18.70;47.20
34776;DHT22;20989;52.566;13.346;2023-04-08T14:55:23;18.70;47.00
34776;DHT22;20989;52.566;13.346;2023-04-08T14:58:24;18.60;47.30
34776;DHT22;20989;52.566;13.346;2023-04-08T15:01:25;18.60;47.20
34776;DHT22;20989;52.566;13.346;2023-04-08T15:04:28;18.60;47.20
34776;DHT22;20989;52.566;13.346;2023-04-08T15:07:28;18.60;47.30
34776;DHT22;20989;52.566;13.346;2023-04-08T15:10:29;18.60;47.00
34776;DHT22;20989;52.566;13.346;2023-04-08T15:13:31;18.60;47.20
34776;DHT22;20989;52.566;13.346;2023-04-08T15:16:31;18.70;47.00
34776;DHT22;20989;52.566;13.346;2023-04-08T15:19:32;18.60;47.40
34776;DHT22;20989;52.566;13.346;2023-04-08T15:22:33;18.70;47.60
34776;DHT22;20989;52.566;13.346;2023-04-08T15:25:33;18.70;47.50
34776;DHT22;20989;52.566;13.346;2023-04-08T15:28:34;18.60;47.00
34776;DHT22;20989;52.566;13.346;2023-04-08T15:31:37;18.60;46.90
34776;DHT22;20989;52.566;13.346;2023-04-08T15:34:37;18.60;47.00
34776;DHT22;20989;52.566;13.346;2023-04-08T15:37:38;18.60;47.00
34776;DHT22;20989;52.566;13.346;2023-04-08T15:40:39;18.60;47.40
34776;DHT22;20989;52.566;13.346;2023-04-08T15:43:40;18.60;46.80
34776;DHT22;20989;52.566;13.346;2023-04-08T15:46:40;18.60;46.90
34776;DHT22;20989;52.566;13.346;2023-04-08T15:49:41;18.60;47.40
34776;DHT22;20989;52.566;13.346;2023-04-08T15:52:43;18.60;46.80
34776;DHT22;20989;52.566;13.346;2023-04-08T15:55:43;18.60;47.40
34776;DHT22;20989;52.566;13.346;2023-04-08T15:58:44;18.60;47.50
34776;DHT22;20989;52.566;13.346;2023-04-08T16:01:45;18.60;47.40
34776;DHT22;20989;52.566;13.346;2023-04-08T16:04:46;18.60;47.20
34776;DHT22;20989;52.566;13.346;2023-04-08T16:07:46;18.60;48.00
34776;DHT22;20989;52.566;13.346;2023-04-08T16:10:47;18.60;47.80
34776;DHT22;20989;52.566;13.346;2023-04-08T16:13:48;18.60;47.20
34776;DHT22;20989;52.566;13.346;2023-04-08T16:16:48;18.60;47.90
34776;DHT22;20989;52.566;13.346;2023-04-08T16:19:50;18.60;47.60
34776;DHT22;20989;52.566;13.346;2023-04-08T16:22:51;18.60;47.20
34776;DHT22;20989;52.566;13.346;2023-04-08T16:25:52;18.60;47.30
34776;DHT22;20989;52.566;13.346;2023-04-08T16:28:52;18.60;47.50
34776;DHT22;20989;52.566;13.346;2023-04-08T16:31:53;18.60;47.60
34776;DHT22;20989;52.566;13.346;2023-04-08T16:34:54;18.60;47.90
34776;DHT22;20989;52.566;13.346;2023-04-08T16:37:54;18.60;47.80
34776;DHT22;20989;52.566;13.346;2023-04-08T16:40:58;18.60;47.20
34776;DHT22;20989;52.566;13.346;2023-04-08T16:43:59;18.60;47.70
34776;DHT22;20989;52.566;13.346;2023-04-08T16:47:00;18.60;48.00
34776;DHT22;20989;52.566;13.346;2023-04-08T16:50:00;18.60;47.80
34776;DHT22;20989;52.566;13.346;2023-04-08T16:53:01;18.60;47.70
34776;DHT22;20989;52.566;13.346;2023-04-08T16:56:02;18.60;47.30
34776;DHT22;20989;52.566;13.346;2023-04-08T16:59:02;18.60;47.40
34776;DHT22;20989;52.566;13.346;2023-04-08T17:02:03;18.60;47.00
34776;DHT22;20989;52.566;13.346;2023-04-08T17:05:04;18.60;47.50
34776;DHT22;20989;52.566;13.346;2023-04-08T17:08:05;18.60;47.00
34776;DHT22;20989;52.566;13.346;2023-04-08T17:11:06;18.60;46.90
34776;DHT22;20989;52.566;13.346;2023-04-08T17:14:07;18.60;47.40
34776;DHT22;20989;52.566;13.346;2023-04-08T17:17:08;18.60;47.00
34776;DHT22;20989;52.566;13.346;2023-04-08T17:20:09;18.60;47.60
34776;DHT22;20989;52.566;13.346;2023-04-08T17:23:10;18.60;47.00
34776;DHT22;20989;52.566;13.346;2023-04-08T17:26:11;18.60;47.90
34776;DHT22;20989;52.566;13.346;2023-04-08T17:29:12;18.60;47.90
34776;DHT22;20989;52.566;13.346;2023-04-08T17:32:13;18.50;47.20
34776;DHT22;20989;52.566;13.346;2023-04-08T17:35:14;18.60;46.70
34776;DHT22;20989;52.566;13.346;2023-04-08T17:38:15;18.70;47.30
34776;DHT22;20989;52.566;13.346;2023-04-08T17:41:16;18.70;46.80
34776;DHT22;20989;52.566;13.346;2023-04-08T17:44:16;18.80;46.90
34776;DHT22;20989;52.566;13.346;2023-04-08T17:47:17;18.80;46.60
34776;DHT22;20989;52.566;13.346;2023-04-08T17:50:20;18.80;46.60
34776;DHT22;20989;52.566;13.346;2023-04-08T17:53:20;18.80;46.30
34776;DHT22;20989;52.566;13.346;2023-04-08T17:56:21;18.90;46.40
34776;DHT22;20989;52.566;13.346;2023-04-08T17:59:22;18.90;46.50
34776;DHT22;20989;52.566;13.346;2023-04-08T18:02:23;18.90;46.30
34776;DHT22;20989;52.566;13.346;2023-04-08T18:05:26;18.90;46.70
34776;DHT22;20989;52.566;13.346;2023-04-08T18:08:28;18.80;47.00
34776;DHT22;20989;52.566;13.346;2023-04-08T18:11:29;18.80;47.10
34776;DHT22;20989;52.566;13.346;2023-04-08T18:14:30;18.80;47.10
34776;DHT22;20989;52.566;13.346;2023-04-08T18:17:31;18.70;47.00
34776;DHT22;20989;52.566;13.346;2023-04-08T18:20:37;18.70;47.00
34776;DHT22;20989;52.566;13.346;2023-04-08T18:23:38;18.70;46.90
34776;DHT22;20989;52.566;13.346;2023-04-08T18:26:39;18.70;47.20
34776;DHT22;20989;52.566;13.346;2023-04-08T18:29:40;18.70;47.30
34776;DHT22;20989;52.566;13.346;2023-04-08T18:32:40;18.70;47.30
34776;DHT22;20989;52.566;13.346;2023-04-08T18:35:41;18.70;47.20
34776;DHT22;20989;52.566;13.346;2023-04-08T18:38:42;18.70;47.00
34776;DHT22;20989;52.566;13.346;2023-04-08T18:41:44;18.70;47.30
34776;DHT22;20989;52.566;13.346;2023-04-08T18:44:45;18.70;47.50
34776;DHT22;20989;52.566;13.346;2023-04-08T18:47:46;18.60;47.10
34776;DHT22;20989;52.566;13.346;2023-04-08T18:50:46;18.60;47.60
34776;DHT22;20989;52.566;13.346;2023-04-08T18:53:49;18.60;47.60
34776;DHT22;20989;52.566;13.346;2023-04-08T18:56:49;18.60;47.60
34776;DHT22;20989;52.566;13.346;2023-04-08T18:59:50;18.60;47.80
34776;DHT22;20989;52.566;13.346;2023-04-08T19:02:50;18.60;47.60
34776;DHT22;20989;52.566;13.346;2023-04-08T19:05:51;18.60;48.20